Time;durP1;ratioP1;P1;durP2;ratioP2;P2;SDS_P1;SDS_P2;PMS_P1;PMS_P2;Temp;Humidity;BMP_temperature;BMP_pressure;BME280_temperature;BME280_humidity;BME280_pressure;Samples;Min_cycle;Max_cycle;Signal;HPM_P1;HPM_P2
2023/12/15 00:01:49;;;;;;;20.73;17.10;;;;;;;3.70;82.07;99205.34;5004703;28;20069;-70
2023/12/15 00:04:14;;;;;;;17.92;13.35;;;;;;;3.58;81.89;99202.25;5002670;28;20032;-70
2023/12/15 00:06:39;;;;;;;14.73;13.10;;;;;;;3.61;82.13;99214.38;5005542;28;20037;-70
2023/12/15 00:09:05;;;;;;;20.90;16.35;;;;;;;3.58;81.65;99223.56;5007109;28;20032;-70
2023/12/15 00:11:30;;;;;;;14.82;13.18;;;;;;;3.44;81.75;99214.47;4985975;28;20461;-70
2023/12/15 00:13:55;;;;;;;15.20;13.60;;;;;;;3.52;81.66;99229.59;5006912;28;20030;-70
2023/12/15 00:16:21;;;;;;;18.20;15.88;;;;;;;3.49;81.87;99235.25;4989782;28;20484;-70
2023/12/15 00:18:46;;;;;;;15.35;13.02;;;;;;;3.43;81.46;99241.28;5013841;28;20026;-70
2023/12/15 00:21:12;;;;;;;14.30;12.80;;;;;;;3.31;81.84;99238.16;5003892;28;20490;-70
2023/12/15 00:23:37;;;;;;;16.60;12.70;;;;;;;3.39;82.12;99239.97;4997276;28;20475;-70
2023/12/15 00:26:03;;;;;;;17.90;15.95;;;;;;;3.38;81.69;99243.63;4995384;28;20402;-70
2023/12/15 00:28:28;;;;;;;24.38;19.52;;;;;;;3.34;81.83;99240.47;5007987;28;20049;-71
2023/12/15 00:30:53;;;;;;;24.23;20.00;;;;;;;3.39;81.83;99255.94;5005813;28;20045;-70
2023/12/15 00:33:19;;;;;;;22.15;18.55;;;;;;;3.42;82.21;99260.91;4986074;28;20510;-71
2023/12/15 00:35:46;;;;;;;18.80;15.27;;;;;;;3.32;82.12;99244.31;5005376;28;20112;-71
2023/12/15 00:38:11;;;;;;;30.92;24.75;;;;;;;3.44;82.04;99261.56;5002163;28;20034;-70
2023/12/15 00:40:36;;;;;;;26.17;20.65;;;;;;;3.30;82.65;99251.66;4987659;28;20061;-70
2023/12/15 00:43:02;;;;;;;28.27;22.38;;;;;;;3.38;82.33;99264.94;5007556;28;20028;-69
2023/12/15 00:45:27;;;;;;;30.13;23.35;;;;;;;3.43;82.69;99273.25;5003019;28;20045;-69
2023/12/15 00:47:53;;;;;;;22.38;19.25;;;;;;;3.37;82.43;99258.78;5006302;28;20030;-70
2023/12/15 00:50:18;;;;;;;16.55;14.23;;;;;;;3.47;82.46;99279.88;5010415;28;20113;-69
2023/12/15 00:52:43;;;;;;;16.63;13.68;;;;;;;3.48;82.40;99284.19;4995632;28;20034;-69
2023/12/15 00:55:09;;;;;;;14.48;12.90;;;;;;;3.46;82.68;99283.53;5007917;28;20033;-69
2023/12/15 00:57:34;;;;;;;15.05;13.07;;;;;;;3.48;82.80;99287.69;5001062;28;20037;-70
2023/12/15 01:00:00;;;;;;;14.93;12.52;;;;;;;3.49;82.81;99293.84;5008217;28;20048;-70
2023/12/15 01:02:25;;;;;;;16.73;13.45;;;;;;;3.47;82.72;99294.03;5005953;28;20026;-70
2023/12/15 01:04:50;;;;;;;15.30;12.85;;;;;;;3.44;82.94;99290.84;5007529;28;20060;-69
2023/12/15 01:07:16;;;;;;;15.50;13.38;;;;;;;3.46;83.06;99304.81;5004646;28;20024;-70
2023/12/15 01:09:41;;;;;;;17.00;13.55;;;;;;;3.42;83.03;99303.50;5005790;28;20059;-69
2023/12/15 01:12:06;;;;;;;17.67;14.63;;;;;;;3.33;83.21;99313.38;5001805;28;20018;-69
2023/12/15 01:14:32;;;;;;;20.70;14.98;;;;;;;3.22;83.17;99335.00;4999297;28;20129;-69
2023/12/15 01:16:59;;;;;;;23.20;15.57;;;;;;;3.23;83.49;99331.34;5008164;28;20044;-69
2023/12/15 01:19:24;;;;;;;18.05;14.95;;;;;;;3.15;83.46;99312.72;5004778;28;20046;-69
2023/12/15 01:21:50;;;;;;;19.38;15.25;;;;;;;3.18;83.18;99330.19;5005973;28;20034;-70
2023/12/15 01:24:15;;;;;;;16.08;14.43;;;;;;;3.22;83.57;99342.19;5004121;28;20117;-70
2023/12/15 01:26:40;;;;;;;20.40;15.48;;;;;;;3.24;83.68;99348.16;4983693;28;20368;-70
2023/12/15 01:29:06;;;;;;;18.83;14.82;;;;;;;3.15;83.29;99335.88;5009750;28;20048;-69
2023/12/15 01:31:31;;;;;;;18.55;14.48;;;;;;;3.27;83.94;99353.97;5000817;28;20490;-69
2023/12/15 01:33:57;;;;;;;14.38;12.88;;;;;;;3.27;83.62;99364.59;5003266;28;20482;-69
2023/12/15 01:36:23;;;;;;;18.70;14.10;;;;;;;3.28;83.78;99366.28;4992420;28;20141;-69
2023/12/15 01:38:48;;;;;;;17.10;14.38;;;;;;;3.21;83.65;99356.47;5007422;28;20062;-70
2023/12/15 01:41:13;;;;;;;18.33;14.15;;;;;;;3.28;83.66;99371.63;5003145;28;20459;-70
2023/12/15 01:43:39;;;;;;;16.30;14.23;;;;;;;3.28;83.67;99373.44;5006493;28;20033;-70
2023/12/15 01:46:04;;;;;;;18.40;14.77;;;;;;;3.21;83.54;99370.63;5002304;28;20119;-70
2023/12/15 01:48:30;;;;;;;18.55;14.10;;;;;;;3.25;83.77;99377.25;5006613;28;20033;-71
2023/12/15 01:50:55;;;;;;;18.70;14.23;;;;;;;3.24;84.08;99385.44;5000350;28;20509;-70
2023/12/15 01:53:21;;;;;;;17.30;14.20;;;;;;;3.24;83.59;99380.09;5004283;28;20048;-70
2023/12/15 01:55:47;;;;;;;18.77;13.80;;;;;;;3.18;83.86;99376.28;5005583;28;20129;-70
2023/12/15 01:58:12;;;;;;;16.08;13.38;;;;;;;3.23;84.08;99387.25;4996724;28;20033;-70
2023/12/15 02:00:37;;;;;;;17.05;14.35;;;;;;;3.22;83.79;99382.91;5003853;28;20031;-70
2023/12/15 02:03:03;;;;;;;15.95;13.90;;;;;;;3.22;84.11;99388.25;4977722;28;20085;-70
2023/12/15 02:05:28;;;;;;;17.30;14.07;;;;;;;3.20;84.07;99384.06;5001575;28;20387;-70
2023/12/15 02:07:54;;;;;;;24.42;17.40;;;;;;;3.16;83.56;99385.44;5008088;28;20394;-70
2023/12/15 02:10:19;;;;;;;22.58;16.85;;;;;;;3.15;83.79;99402.41;4984094;28;20022;-70
2023/12/15 02:12:45;;;;;;;20.75;16.25;;;;;;;2.97;84.10;99377.78;5005488;28;20442;-70
2023/12/15 02:15:11;;;;;;;18.30;14.52;;;;;;;3.05;83.92;99399.91;5003612;28;20025;-71
2023/12/15 02:17:37;;;;;;;23.10;15.82;;;;;;;2.97;84.17;99393.75;5007473;28;20041;-71
2023/12/15 02:20:02;;;;;;;16.75;13.80;;;;;;;2.80;83.48;99372.47;5002422;28;20153;-71
2023/12/15 02:22:28;;;;;;;15.65;13.00;;;;;;;2.92;84.07;99396.91;5005179;28;20129;-71
2023/12/15 02:24:53;;;;;;;18.17;14.55;;;;;;;2.93;83.75;99408.38;4966608;28;20030;-70
2023/12/15 02:27:19;;;;;;;21.20;15.98;;;;;;;2.82;83.77;99406.06;4997794;28;20034;-70
2023/12/15 02:29:44;;;;;;;39.42;23.85;;;;;;;2.90;83.57;99416.69;4987655;28;20022;-70
2023/12/15 02:32:09;;;;;;;32.10;21.42;;;;;;;2.85;84.05;99427.03;5003812;28;20030;-71
2023/12/15 02:34:35;;;;;;;27.73;19.30;;;;;;;2.80;83.33;99425.66;5003092;28;20376;-70
2023/12/15 02:37:00;;;;;;;29.98;20.40;;;;;;;2.87;83.69;99433.00;5009384;28;20045;-70
2023/12/15 02:39:26;;;;;;;28.48;20.83;;;;;;;2.78;83.69;99422.34;4997345;28;20030;-70
2023/12/15 02:41:51;;;;;;;25.05;18.65;;;;;;;2.84;84.01;99439.47;5003477;28;20035;-71
2023/12/15 02:44:17;;;;;;;22.55;17.33;;;;;;;2.77;83.91;99444.63;4989425;28;20027;-71
2023/12/15 02:46:42;;;;;;;23.20;16.48;;;;;;;2.68;83.96;99437.63;4993000;28;20034;-71
2023/12/15 02:49:08;;;;;;;24.70;16.70;;;;;;;2.55;83.60;99416.00;4995833;28;20398;-71
2023/12/15 02:51:33;;;;;;;22.48;16.60;;;;;;;2.62;83.49;99427.66;5008023;28;20040;-71
2023/12/15 02:53:59;;;;;;;21.48;15.98;;;;;;;2.61;83.38;99425.97;5004630;28;20021;-70
2023/12/15 02:56:25;;;;;;;26.33;18.45;;;;;;;2.56;83.80;99427.47;4994415;28;20093;-71
2023/12/15 02:58:50;;;;;;;24.98;17.77;;;;;;;2.59;83.55;99449.22;5001758;28;20030;-70
2023/12/15 03:01:16;;;;;;;33.67;20.42;;;;;;;2.53;84.07;99460.53;5008366;28;20041;-71
2023/12/15 03:03:42;;;;;;;29.25;19.67;;;;;;;2.34;83.52;99442.19;4991423;28;20035;-71
2023/12/15 03:06:07;;;;;;;43.25;25.17;;;;;;;2.46;83.63;99466.66;5007150;28;20042;-71
2023/12/15 03:08:32;;;;;;;72.38;36.60;;;;;;;2.32;83.65;99440.69;5007031;28;20101;-71
2023/12/15 03:10:58;;;;;;;79.32;42.10;;;;;;;2.41;83.83;99467.13;5000900;28;20410;-71
2023/12/15 03:13:30;;;;;;;79.72;40.10;;;;;;;2.45;84.01;99476.44;5003648;28;20026;-71
2023/12/15 03:16:04;;;;;;;63.38;35.28;;;;;;;2.46;83.38;99475.47;5010732;28;20052;-70
2023/12/15 03:18:30;;;;;;;43.78;24.52;;;;;;;2.45;83.64;99473.78;5003261;28;20108;-71
2023/12/15 03:20:55;;;;;;;33.13;20.50;;;;;;;2.46;83.73;99475.47;5010135;28;20682;-71
2023/12/15 03:23:20;;;;;;;32.10;20.75;;;;;;;2.38;84.36;99471.97;5002003;28;20088;-71
2023/12/15 03:25:46;;;;;;;32.85;20.63;;;;;;;2.41;83.52;99475.13;5009133;28;20021;-70
2023/12/15 03:28:11;;;;;;;31.23;20.73;;;;;;;2.41;83.35;99471.63;5006974;28;20033;-70
2023/12/15 03:30:36;;;;;;;25.38;18.05;;;;;;;2.40;83.66;99481.44;5008257;28;20500;-70
2023/12/15 03:33:02;;;;;;;24.17;17.17;;;;;;;2.30;83.84;99471.91;5005079;28;20038;-70
2023/12/15 03:35:27;;;;;;;24.30;16.58;;;;;;;2.27;83.99;99474.88;5008653;28;20021;-70
2023/12/15 03:37:52;;;;;;;22.02;16.38;;;;;;;2.31;83.76;99486.88;5001560;28;20049;-70
2023/12/15 03:40:18;;;;;;;23.45;16.50;;;;;;;2.25;83.96;99488.34;5006127;28;20025;-70
2023/12/15 03:42:46;;;;;;;29.23;17.85;;;;;;;2.15;84.38;99492.94;5006786;28;20042;-70
2023/12/15 03:45:11;;;;;;;20.08;15.23;;;;;;;2.01;84.36;99480.25;5006276;28;20025;-70
2023/12/15 03:47:37;;;;;;;21.88;15.27;;;;;;;2.00;83.63;99495.38;5006226;28;20479;-70
2023/12/15 03:50:02;;;;;;;24.50;16.67;;;;;;;2.05;84.04;99500.22;5012838;28;20036;-70
2023/12/15 03:52:27;;;;;;;30.45;17.98;;;;;;;1.96;84.36;99503.81;5003283;28;20108;-70
2023/12/15 03:54:53;;;;;;;37.03;19.50;;;;;;;1.90;84.03;99504.44;5008481;28;20470;-70
2023/12/15 03:57:18;;;;;;;33.58;18.52;;;;;;;1.89;84.00;99502.78;5003063;28;20046;-71
2023/12/15 03:59:44;;;;;;;20.38;16.05;;;;;;;1.85;84.07;99509.38;4987418;28;20028;-70
2023/12/15 04:02:12;;;;;;;25.92;18.13;;;;;;;1.84;83.23;99515.69;5006446;28;20509;-70
2023/12/15 04:04:38;;;;;;;25.27;17.27;;;;;;;1.92;84.33;99529.00;5009315;28;20033;-70
2023/12/15 04:07:03;;;;;;;22.15;16.40;;;;;;;1.96;84.23;99535.69;5003426;28;20041;-71
2023/12/15 04:09:28;;;;;;;35.33;20.60;;;;;;;1.93;84.24;99536.84;5006850;28;20021;-70
2023/12/15 04:11:54;;;;;;;28.17;18.45;;;;;;;1.92;84.12;99534.31;4995774;28;20042;-70
2023/12/15 04:14:19;;;;;;;21.75;16.85;;;;;;;1.93;84.31;99536.00;5005989;28;20025;-70
2023/12/15 04:16:44;;;;;;;30.00;19.42;;;;;;;2.00;84.18;99537.03;5008071;28;20053;-70
2023/12/15 04:19:10;;;;;;;29.88;19.58;;;;;;;1.91;83.92;99527.38;4996839;28;20034;-69
2023/12/15 04:21:35;;;;;;;24.45;17.48;;;;;;;1.98;84.47;99544.34;5005274;28;20038;-70
2023/12/15 04:24:00;;;;;;;23.25;16.95;;;;;;;2.01;85.15;99538.69;5000766;28;20482;-70
2023/12/15 04:26:26;;;;;;;38.97;21.63;;;;;;;2.14;84.78;99538.28;5003012;28;20030;-69
2023/12/15 04:28:52;;;;;;;24.45;17.88;;;;;;;2.16;84.40;99545.09;5009514;28;20508;-69
2023/12/15 04:31:17;;;;;;;25.88;18.80;;;;;;;2.11;84.38;99534.13;5001794;28;20076;-68
2023/12/15 04:33:42;;;;;;;26.75;18.30;;;;;;;2.17;84.68;99538.78;5007504;28;20466;-69
2023/12/15 04:36:08;;;;;;;31.95;20.35;;;;;;;2.24;85.35;99553.09;5006412;28;20037;-69
2023/12/15 04:38:34;;;;;;;31.48;21.38;;;;;;;2.01;85.93;99539.53;5009001;28;20036;-69
2023/12/15 04:41:00;;;;;;;26.92;18.95;;;;;;;2.09;85.63;99552.03;5003450;28;20034;-69
2023/12/15 04:43:25;;;;;;;25.73;19.30;;;;;;;2.13;85.87;99552.53;5006597;28;20030;-69
2023/12/15 04:45:50;;;;;;;32.47;21.83;;;;;;;2.15;86.62;99539.97;4984172;28;20053;-69
2023/12/15 04:48:16;;;;;;;28.50;19.95;;;;;;;2.25;85.57;99556.59;5006594;28;20033;-69
2023/12/15 04:50:42;;;;;;;29.20;20.63;;;;;;;2.14;86.17;99539.13;5007241;28;20076;-70
2023/12/15 04:53:07;;;;;;;25.33;18.98;;;;;;;2.29;85.55;99561.44;5005487;28;20021;-69
2023/12/15 04:55:32;;;;;;;23.48;17.58;;;;;;;2.22;86.48;99557.75;5006121;28;20042;-70
2023/12/15 04:57:58;;;;;;;25.23;18.75;;;;;;;2.32;86.62;99558.47;5003802;28;20029;-70
2023/12/15 05:00:23;;;;;;;29.77;21.88;;;;;;;2.34;85.87;99556.50;5004901;28;20034;-70
2023/12/15 05:02:49;;;;;;;29.70;21.42;;;;;;;2.35;86.41;99563.47;4991293;28;20022;-70
2023/12/15 05:05:15;;;;;;;27.70;20.20;;;;;;;2.16;86.81;99553.06;5003225;28;20078;-70
2023/12/15 05:07:40;;;;;;;28.17;20.80;;;;;;;2.11;86.86;99547.41;5006266;28;20030;-70
2023/12/15 05:10:06;;;;;;;28.95;20.40;;;;;;;2.27;86.58;99565.25;5001627;28;20031;-70
2023/12/15 05:12:34;;;;;;;28.73;21.42;;;;;;;2.17;86.13;99564.53;5003671;28;20156;-71
2023/12/15 05:15:00;;;;;;;26.70;20.02;;;;;;;2.25;86.35;99562.75;5004115;28;20045;-69
2023/12/15 05:17:26;;;;;;;33.72;25.38;;;;;;;2.35;85.99;99576.78;5008199;28;20037;-71
2023/12/15 05:19:51;;;;;;;31.88;24.35;;;;;;;2.36;86.39;99565.13;5002454;28;20096;-71
2023/12/15 05:22:16;;;;;;;29.67;22.65;;;;;;;2.38;85.73;99573.78;5007070;28;20497;-71
2023/12/15 05:24:42;;;;;;;31.27;23.38;;;;;;;2.47;85.64;99578.16;5000803;28;20046;-72
2023/12/15 05:27:08;;;;;;;40.42;29.88;;;;;;;2.42;86.23;99593.75;5004718;28;20057;-72
2023/12/15 05:29:33;;;;;;;32.58;24.85;;;;;;;2.24;86.63;99608.91;4998471;28;20053;-72
2023/12/15 05:31:59;;;;;;;42.30;34.28;;;;;;;2.18;87.33;99609.56;5003026;28;20065;-72
2023/12/15 05:34:25;;;;;;;33.15;22.25;;;;;;;2.20;86.29;99610.22;4992297;28;20205;-71
2023/12/15 05:36:50;;;;;;;105.35;94.25;;;;;;;2.28;86.48;99625.38;5002894;28;20086;-72
2023/12/15 05:39:16;;;;;;;45.42;37.20;;;;;;;2.19;87.04;99616.53;5002727;28;20089;-71
2023/12/15 05:41:42;;;;;;;35.55;29.20;;;;;;;2.37;86.34;99637.75;5006205;28;20025;-72
2023/12/15 05:44:07;;;;;;;35.05;25.33;;;;;;;2.46;86.95;99650.09;4999279;28;20113;-71
2023/12/15 05:46:35;;;;;;;29.55;22.45;;;;;;;2.34;86.96;99641.53;5004215;28;20040;-72
2023/12/15 05:49:01;;;;;;;29.35;23.55;;;;;;;2.46;86.41;99645.59;5005094;28;20026;-71
2023/12/15 05:51:26;;;;;;;28.48;22.00;;;;;;;2.55;86.58;99657.94;5006730;28;20500;-71
2023/12/15 05:53:51;;;;;;;29.00;22.67;;;;;;;2.57;86.68;99663.09;5002207;28;20034;-72
2023/12/15 05:56:17;;;;;;;28.67;22.15;;;;;;;2.61;86.64;99669.78;5006159;28;20107;-71
2023/12/15 05:58:42;;;;;;;29.52;22.48;;;;;;;2.63;86.74;99668.66;5000199;28;20042;-71
2023/12/15 06:01:08;;;;;;;30.08;21.48;;;;;;;2.57;87.02;99647.16;5005711;28;20030;-72
2023/12/15 06:03:33;;;;;;;28.38;20.45;;;;;;;2.59;87.06;99646.00;5006259;28;20442;-72
2023/12/15 06:05:59;;;;;;;27.00;21.20;;;;;;;2.68;86.50;99661.00;5004257;28;20091;-72
2023/12/15 06:08:24;;;;;;;25.58;18.52;;;;;;;2.62;86.40;99666.13;5005527;28;20064;-71
2023/12/15 06:10:50;;;;;;;27.58;20.05;;;;;;;2.59;86.29;99667.28;5000510;28;20085;-71
2023/12/15 06:13:15;;;;;;;27.42;20.30;;;;;;;2.64;86.45;99669.47;5005514;28;20053;-72
2023/12/15 06:15:40;;;;;;;26.27;19.35;;;;;;;2.52;86.68;99655.59;4999215;28;20045;-71
2023/12/15 06:18:06;;;;;;;25.38;19.13;;;;;;;2.58;86.65;99668.28;4997350;28;20130;-72
2023/12/15 06:20:31;;;;;;;27.13;19.95;;;;;;;2.58;86.63;99670.09;5008705;28;20135;-72
2023/12/15 06:22:57;;;;;;;27.27;20.33;;;;;;;2.49;86.95;99665.72;5007963;28;20073;-72
2023/12/15 06:25:23;;;;;;;24.63;18.88;;;;;;;2.54;86.50;99674.91;5005636;28;20071;-71
2023/12/15 06:27:48;;;;;;;24.27;18.95;;;;;;;2.53;86.23;99678.56;5008778;28;20048;-71
2023/12/15 06:30:14;;;;;;;26.58;20.48;;;;;;;2.41;86.78;99669.16;5011333;28;20058;-71
2023/12/15 06:32:39;;;;;;;27.40;19.55;;;;;;;2.44;86.51;99679.50;4989175;28;20087;-71
2023/12/15 06:35:05;;;;;;;25.98;20.25;;;;;;;2.46;86.26;99698.78;5009159;28;20493;-72
2023/12/15 06:37:30;;;;;;;28.73;21.17;;;;;;;2.41;87.04;99698.41;4997301;28;20042;-71
2023/12/15 06:39:56;;;;;;;25.42;19.15;;;;;;;2.39;86.50;99699.53;5008172;28;20061;-72
2023/12/15 06:42:21;;;;;;;28.27;21.02;;;;;;;2.41;86.87;99714.34;5010026;28;20491;-71
2023/12/15 06:44:47;;;;;;;28.65;20.83;;;;;;;2.33;86.96;99719.63;5006324;28;20133;-71
2023/12/15 06:47:13;;;;;;;34.22;22.92;;;;;;;2.43;86.44;99730.13;5010711;28;20045;-71
2023/12/15 06:49:39;;;;;;;29.63;21.65;;;;;;;2.43;86.36;99733.63;5002387;28;20026;-71
2023/12/15 06:52:05;;;;;;;30.75;21.90;;;;;;;2.50;86.52;99732.03;5009420;28;20030;-72
2023/12/15 06:54:30;;;;;;;30.50;22.40;;;;;;;2.51;86.91;99739.03;5009374;28;20018;-74
2023/12/15 06:56:55;;;;;;;29.52;23.40;;;;;;;2.52;86.77;99740.69;5007792;28;20387;-73
2023/12/15 06:59:21;;;;;;;45.97;35.38;;;;;;;2.59;86.71;99749.69;4987290;28;20029;-72
2023/12/15 07:01:46;;;;;;;45.67;33.33;;;;;;;2.61;86.46;99746.91;5007993;28;20034;-72
2023/12/15 07:04:12;;;;;;;38.50;26.75;;;;;;;2.52;86.90;99756.63;4965771;28;20021;-72
2023/12/15 07:06:37;;;;;;;32.67;23.98;;;;;;;2.48;87.32;99763.25;4992174;28;20038;-71
2023/12/15 07:09:02;;;;;;;28.15;21.75;;;;;;;2.48;87.00;99752.63;4991448;28;20553;-72
2023/12/15 07:11:28;;;;;;;31.63;24.17;;;;;;;2.50;86.37;99747.97;4999229;28;20048;-72
2023/12/15 07:13:53;;;;;;;33.60;23.40;;;;;;;2.53;86.51;99750.34;5006607;28;20030;-72
2023/12/15 07:16:18;;;;;;;30.33;22.90;;;;;;;2.45;86.51;99739.63;5010705;28;20045;-72
2023/12/15 07:18:45;;;;;;;45.97;32.80;;;;;;;2.59;87.07;99768.31;5002084;28;20080;-72
2023/12/15 07:21:11;;;;;;;33.97;25.00;;;;;;;2.66;86.77;99774.69;5005730;28;20048;-72
2023/12/15 07:23:36;;;;;;;30.27;23.15;;;;;;;2.62;86.38;99776.00;5004717;28;20022;-72
2023/12/15 07:26:02;;;;;;;36.92;29.02;;;;;;;2.57;86.78;99759.66;4999313;28;20030;-73
2023/12/15 07:28:27;;;;;;;35.17;27.92;;;;;;;2.75;86.50;99778.25;4989769;28;20036;-73
2023/12/15 07:30:53;;;;;;;37.08;27.60;;;;;;;2.73;86.97;99774.94;5002415;28;20068;-72
2023/12/15 07:33:18;;;;;;;31.40;22.60;;;;;;;2.71;87.14;99788.34;4999635;28;20029;-72
2023/12/15 07:35:44;;;;;;;27.92;21.92;;;;;;;2.64;86.69;99771.34;5006280;28;20500;-72
2023/12/15 07:38:09;;;;;;;29.65;22.25;;;;;;;2.84;86.68;99787.13;5010225;28;20026;-72
2023/12/15 07:40:35;;;;;;;30.17;24.27;;;;;;;2.78;86.42;99786.75;5003762;28;20061;-72
2023/12/15 07:43:01;;;;;;;30.27;23.73;;;;;;;2.89;86.24;99788.34;4990869;28;20021;-72
2023/12/15 07:45:26;;;;;;;30.10;22.33;;;;;;;3.04;86.26;99799.22;5010993;28;20034;-72
2023/12/15 07:47:52;;;;;;;32.25;25.20;;;;;;;3.01;86.47;99797.69;5006123;28;20022;-72
2023/12/15 07:50:18;;;;;;;31.65;24.80;;;;;;;3.03;86.34;99792.25;4993540;28;20520;-72
2023/12/15 07:52:43;;;;;;;28.92;22.90;;;;;;;3.08;86.29;99795.25;5004586;28;20052;-72
2023/12/15 07:55:09;;;;;;;31.38;25.00;;;;;;;3.09;86.13;99786.28;5009622;28;20042;-72
2023/12/15 07:57:34;;;;;;;29.13;23.33;;;;;;;3.17;86.24;99796.97;5002479;28;20033;-72
2023/12/15 07:59:59;;;;;;;28.67;22.67;;;;;;;3.20;86.03;99802.81;5009518;28;20108;-72
2023/12/15 08:02:25;;;;;;;26.38;21.33;;;;;;;3.23;86.10;99812.31;5000340;28;20096;-72
2023/12/15 08:04:50;;;;;;;36.60;28.35;;;;;;;3.22;86.11;99818.63;4991594;28;20482;-70
2023/12/15 08:07:15;;;;;;;32.78;24.85;;;;;;;3.29;85.83;99820.47;5005671;28;20029;-72
2023/12/15 08:09:41;;;;;;;31.02;23.95;;;;;;;3.32;85.56;99806.03;5008145;28;20041;-72
2023/12/15 08:12:06;;;;;;;28.48;21.58;;;;;;;3.38;86.08;99808.06;5001954;28;20010;-73
2023/12/15 08:14:32;;;;;;;30.63;22.70;;;;;;;3.34;85.33;99810.19;5005988;28;20041;-72
2023/12/15 08:16:57;;;;;;;29.25;22.73;;;;;;;3.43;85.47;99819.09;5007616;28;20033;-73
2023/12/15 08:19:22;;;;;;;27.10;21.63;;;;;;;3.38;85.68;99816.88;4997836;28;20439;-72
2023/12/15 08:21:48;;;;;;;23.75;19.33;;;;;;;3.22;86.23;99808.00;5005371;28;20026;-73
2023/12/15 08:24:14;;;;;;;28.38;21.35;;;;;;;3.34;86.48;99822.66;5004041;28;20042;-73
2023/12/15 08:26:39;;;;;;;30.65;23.48;;;;;;;3.32;86.05;99809.53;5003212;28;20025;-72
2023/12/15 08:29:05;;;;;;;32.17;23.80;;;;;;;3.46;86.03;99832.06;5011969;28;20482;-73
2023/12/15 08:31:30;;;;;;;28.05;22.60;;;;;;;3.57;85.69;99847.75;5003218;28;20084;-73
2023/12/15 08:33:56;;;;;;;29.80;22.88;;;;;;;3.62;85.85;99850.78;5009085;28;20132;-73
2023/12/15 08:36:21;;;;;;;132.10;90.22;;;;;;;3.60;85.56;99843.94;5000840;28;20041;-73
2023/12/15 08:38:47;;;;;;;60.20;41.88;;;;;;;3.48;85.53;99835.38;4974212;28;20037;-73
2023/12/15 08:41:12;;;;;;;111.57;78.35;;;;;;;3.54;86.17;99856.09;5003834;28;20456;-72
2023/12/15 08:43:37;;;;;;;106.95;74.45;;;;;;;3.65;85.26;99862.94;5006658;28;20040;-72
2023/12/15 08:46:03;;;;;;;95.28;63.47;;;;;;;3.70;85.76;99866.81;5001879;28;20033;-72
2023/12/15 08:48:28;;;;;;;42.03;31.08;;;;;;;3.67;85.46;99856.47;5005948;28;20112;-72
2023/12/15 08:50:54;;;;;;;34.08;25.50;;;;;;;3.66;85.99;99856.63;5008575;28;20081;-72
2023/12/15 08:53:19;;;;;;;31.33;24.20;;;;;;;3.68;85.32;99851.97;5005155;28;20030;-72
2023/12/15 08:55:45;;;;;;;30.88;23.50;;;;;;;3.84;85.58;99868.88;4989190;28;20035;-72
2023/12/15 08:58:11;;;;;;;32.53;22.63;;;;;;;3.87;85.66;99873.88;5004287;28;20042;-72
2023/12/15 09:00:36;;;;;;;225.52;36.65;;;;;;;3.79;85.76;99865.84;4986904;28;20154;-72
2023/12/15 09:03:02;;;;;;;31.30;22.90;;;;;;;3.84;85.70;99874.19;5010244;28;20042;-71
2023/12/15 09:05:27;;;;;;;28.77;22.17;;;;;;;3.91;85.09;99883.22;5008614;28;20025;-72
2023/12/15 09:07:53;;;;;;;30.95;22.92;;;;;;;3.95;85.51;99886.38;5009345;28;20072;-72
2023/12/15 09:10:19;;;;;;;32.80;24.80;;;;;;;3.97;85.12;99887.06;5000517;28;20022;-72
2023/12/15 09:12:45;;;;;;;41.88;28.77;;;;;;;3.97;85.50;99890.56;5005405;28;20113;-72
2023/12/15 09:15:12;;;;;;;37.95;26.90;;;;;;;3.99;85.60;99883.22;5003930;28;20454;-72
2023/12/15 09:17:38;;;;;;;31.95;23.83;;;;;;;4.04;85.14;99891.59;4990768;28;20069;-71
2023/12/15 09:20:04;;;;;;;31.67;23.88;;;;;;;4.11;85.44;99891.78;5002347;28;20114;-72
2023/12/15 09:22:30;;;;;;;35.33;25.67;;;;;;;4.10;85.05;99890.97;5006577;28;20034;-73
2023/12/15 09:24:55;;;;;;;32.80;24.70;;;;;;;4.17;85.69;99891.97;5002902;28;20069;-73
2023/12/15 09:27:20;;;;;;;36.03;26.88;;;;;;;4.22;84.80;99886.97;4998142;28;20495;-72
2023/12/15 09:29:46;;;;;;;36.75;26.75;;;;;;;4.33;84.33;99890.34;5004500;28;20036;-72
2023/12/15 09:32:11;;;;;;;40.10;29.15;;;;;;;4.19;85.08;99890.00;4986761;28;20041;-72
2023/12/15 09:34:36;;;;;;;34.38;26.50;;;;;;;4.32;85.37;99904.69;5002641;28;20028;-72
2023/12/15 09:37:02;;;;;;;31.52;23.50;;;;;;;4.36;84.85;99898.88;5010122;28;20041;-71
2023/12/15 09:39:28;;;;;;;34.40;24.80;;;;;;;4.52;85.08;99912.25;5002627;28;20471;-72
2023/12/15 09:41:53;;;;;;;32.78;24.45;;;;;;;4.55;84.60;99908.41;5007840;28;20038;-71
2023/12/15 09:44:19;;;;;;;31.15;24.33;;;;;;;4.50;84.74;99908.06;5000471;28;20038;-71
2023/12/15 09:46:44;;;;;;;32.63;24.35;;;;;;;4.61;85.23;99921.91;4988805;28;20034;-72
2023/12/15 09:49:15;;;;;;;33.33;25.23;;;;;;;4.72;84.52;99923.44;5003599;28;20060;-72
2023/12/15 09:51:45;;;;;;;36.92;25.98;;;;;;;4.76;84.57;99914.13;5007824;28;20113;-72
2023/12/15 09:54:10;;;;;;;37.25;26.27;;;;;;;4.70;84.01;99904.91;5005202;28;20045;-72
2023/12/15 09:56:36;;;;;;;36.47;25.60;;;;;;;4.78;84.32;99920.13;5009555;28;20030;-73
2023/12/15 09:59:01;;;;;;;34.35;26.45;;;;;;;4.79;84.49;99925.28;4986677;28;20112;-72
2023/12/15 10:01:27;;;;;;;36.35;25.60;;;;;;;4.70;84.53;99909.41;5008482;28;20036;-72
2023/12/15 10:03:53;;;;;;;36.13;26.33;;;;;;;4.82;84.62;99913.44;5009589;28;20042;-72
2023/12/15 10:06:19;;;;;;;36.42;26.45;;;;;;;4.90;84.53;99916.13;5007447;28;20029;-72
2023/12/15 10:08:45;;;;;;;34.13;25.80;;;;;;;5.00;84.04;99932.78;5008616;28;20048;-72
2023/12/15 10:11:11;;;;;;;42.15;28.02;;;;;;;5.01;84.96;99934.47;5005985;28;20028;-73
2023/12/15 10:13:39;;;;;;;43.67;29.60;;;;;;;5.06;84.11;99939.31;4988830;28;20049;-73
2023/12/15 10:16:05;;;;;;;43.78;29.58;;;;;;;5.03;83.80;99926.28;4999661;28;20030;-72
2023/12/15 10:18:31;;;;;;;39.22;28.33;;;;;;;5.15;84.13;99941.81;4987308;28;20045;-72
2023/12/15 10:20:56;;;;;;;40.17;27.67;;;;;;;4.98;84.90;99926.78;5011806;28;20032;-72
2023/12/15 10:23:26;;;;;;;42.22;30.35;;;;;;;5.20;84.67;99944.84;4989766;28;20034;-72
2023/12/15 10:25:53;;;;;;;41.22;29.48;;;;;;;5.13;83.96;99932.31;5025281;28;20037;-72
2023/12/15 10:28:19;;;;;;;43.20;29.83;;;;;;;5.19;84.22;99937.81;5006595;28;20152;-73
2023/12/15 10:30:44;;;;;;;40.05;27.38;;;;;;;5.22;84.15;99931.31;4987669;28;20124;-72
2023/12/15 10:33:10;;;;;;;37.30;26.80;;;;;;;5.20;84.22;99933.31;5005528;28;20017;-73
2023/12/15 10:35:36;;;;;;;38.40;26.88;;;;;;;5.35;84.34;99953.81;5008020;28;20034;-72
2023/12/15 10:38:02;;;;;;;36.85;26.48;;;;;;;5.31;84.63;99947.16;5010158;28;20398;-72
2023/12/15 10:40:27;;;;;;;38.17;26.83;;;;;;;5.33;84.60;99928.28;5006408;28;20034;-72
2023/12/15 10:42:53;;;;;;;39.67;27.95;;;;;;;5.44;84.15;99939.44;5007397;28;20466;-72
2023/12/15 10:45:19;;;;;;;45.10;30.70;;;;;;;5.36;84.89;99925.28;4989300;28;20033;-70
2023/12/15 10:47:46;;;;;;;43.15;30.55;;;;;;;5.42;84.66;99932.59;4983451;28;20030;-70
2023/12/15 10:50:12;;;;;;;45.22;30.67;;;;;;;5.55;84.36;99935.63;5011933;28;20405;-72
2023/12/15 10:52:39;;;;;;;44.20;30.63;;;;;;;5.58;84.87;99940.59;5003158;28;20025;-71
2023/12/15 10:55:06;;;;;;;40.38;29.25;;;;;;;5.67;84.29;99941.44;4994370;28;20045;-72
2023/12/15 10:57:32;;;;;;;39.50;28.48;;;;;;;5.68;84.33;99953.78;5002005;28;20424;-71
2023/12/15 10:59:57;;;;;;;39.47;27.70;;;;;;;5.72;84.40;99958.63;5009189;28;20033;-72
2023/12/15 11:02:24;;;;;;;40.13;27.65;;;;;;;5.65;84.02;99956.81;4993918;28;20093;-69
2023/12/15 11:04:49;;;;;;;37.13;26.70;;;;;;;5.74;84.16;99974.50;4995011;28;20030;-71
2023/12/15 11:07:24;;;;;;;35.38;27.00;;;;;;;5.76;84.12;99967.13;5014841;28;20497;-72
2023/12/15 11:09:50;;;;;;;42.00;29.70;;;;;;;5.84;84.59;99985.81;5005345;28;20406;-70
2023/12/15 11:12:24;;;;;;;39.60;29.27;;;;;;;5.82;83.71;99983.31;4976828;28;20117;-71
2023/12/15 11:15:03;;;;;;;40.28;28.92;;;;;;;5.91;84.37;99997.53;4992914;28;20042;-72
2023/12/15 11:17:29;;;;;;;45.03;30.52;;;;;;;5.95;84.11;99993.53;4993801;28;20034;-72